• Join FlightAware (Why Join?)
  • Login
  • US Flag 
03:41AM EST


 

Airport Tracker/Info


-or-


 

Live Flight TrackerFlight Track Log ✈ RPA4892 ✈ 13-Apr-2014 ✈ KIAD - KRDU

Flight Track Log - Related Links

Times and Time Zones

All times are in EDT time to prevent confusion due to time zone crossing. See the RPA4892 flight status page for this flight to view local times or setup timezone preferences in your user account.

Time Position Orientation Groundspeed Altitude Reporting Facility
EDT Latitude Longitude Course Direction KTS MPH feet Rate Location/Type
05:45PM 38.6915 -77.6001 208° Southwest  Level FlightAware Approximate
05:46PM 38.6097 -77.6547 208° Southwest  Level FlightAware Approximate
05:47PM 38.5260 -77.7037 201° Southwest  Level FlightAware Approximate
05:48PM 38.4455 -77.7603 212° Southwest  Level FlightAware Approximate
05:49PM 38.3709 -77.8291 218° Southwest  Level FlightAware Approximate
05:50PM 38.2972 -77.8996 213° Southwest  Level FlightAware Approximate
05:51PM 38.2200 -77.9639 213° Southwest  Level FlightAware Approximate
05:52PM 38.1415 -78.0252 218° Southwest  Level FlightAware Approximate
05:53PM 38.0690 -78.0977 218° Southwest  Level FlightAware Approximate
05:54PM 37.9914 -78.1586 218° Southwest  Level FlightAware Approximate
05:55PM 37.9092 -78.2111 205° Southwest  Level FlightAware Approximate
05:56PM 37.8259 -78.2611 205° Southwest  Level FlightAware Approximate
05:57PM 37.7431 -78.3127 206° Southwest  Level FlightAware Approximate
05:58PM 37.6608 -78.3651 208° Southwest  Level FlightAware Approximate
05:59PM 37.5793 -78.4196 208° Southwest  Level FlightAware Approximate
06:00PM 37.4978 -78.4739 208° Southwest  Level FlightAware Approximate
06:01PM 37.4162 -78.5282 208° Southwest  Level FlightAware Approximate
06:02PM 37.3347 -78.5824 208° Southwest  Level FlightAware Approximate
06:03PM 37.2532 -78.6367 208° Southwest  Level FlightAware Approximate
06:04PM 37.1686 -78.6824 202° Southwest  Level FlightAware Approximate
06:05PM 37.0876 -78.7361 208° Southwest  Level FlightAware Approximate
06:06PM 37.0060 -78.7899 206° Southwest  Level FlightAware Approximate
06:07PM 36.9232 -78.8407 206° Southwest  Level FlightAware Approximate
06:08PM 36.8403 -78.8913 206° Southwest  Level FlightAware Approximate
06:08PM 37.1133 -78.7375 158° South 343 395 15,900  Level Washington Center
06:09PM 36.7575 -78.9418 206° Southwest  Level FlightAware Approximate
06:10PM 37.0319 -78.7889 207° Southwest 338 389 16,000  Level Washington Center
06:10PM 36.6754 -78.9942 208° Southwest  Level FlightAware Approximate
06:11PM 36.6021 -78.9956 166° South  Level FlightAware Approximate
06:12PM 36.5294 -78.9738 166° South  Level FlightAware Approximate
06:12PM 36.8519 -78.9047 207° Southwest 338 389 14,600  Level Washington Center
06:13PM 36.4567 -78.9520 166° South  Level FlightAware Approximate
06:13PM 36.7686 -78.9561 206° Southwest 339 390 13,600  Level Washington Center
06:14PM 36.3825 -78.9324 141° Southeast  Level FlightAware Approximate
06:14PM 36.6914 -79.0061 207° Southwest 330 380 12,000  Level Washington Center
06:15PM 36.3123 -78.9011 167° South  Level FlightAware Approximate
06:15PM 36.6061 -78.9972 175° South 307 353 10,600  Level Washington Center
06:16PM 36.2379 -78.8833 180° South  Level FlightAware Approximate
06:16PM 36.5192 -78.9689 165° South 284 327 9,500  Level Washington Center
06:17PM 36.1637 -78.8634 167° South  Level FlightAware Approximate
06:17PM 36.4475 -78.9464 166° South 261 300 8,500  Level Washington Center
06:18PM 36.0900 -78.8367 158° South  Level FlightAware Approximate
06:18PM 36.3653 -78.9247 168° South 264 304 8,100  Level Washington Center
06:19PM 36.2950 -78.9058 168° South 261 300 8,000 -53 Descending Washington Center
06:20PM 36.2433 -78.8572 143° Southeast 264 304 8,000 -574 Level Washington Center
06:21PM 36.2006 -78.7947 130° Southeast 239 275 6,900 -934 Descending Washington Center
06:22PM 36.1622 -78.7278 125° Southeast 232 267 6,100 -686 Descending Washington Center
06:22PM 36.1547 -78.7142 124° Southeast 231 266 6,100 -98 Level Washington Center
06:23PM 36.1256 -78.6661 127° Southeast 225 259 6,000 -98 Descending Washington Center
06:23PM 36.1181 -78.6536 127° Southeast 225 259 6,000 -590 Level Washington Center
06:24PM 36.0775 -78.6108 140° Southeast 220 253 5,400 -750 Descending Washington Center
06:24PM 36.0711 -78.6064 151° Southeast 223 257 5,200 -1,300 Descending Washington Center
06:25PM 36.0275 -78.6072 181° South 210 242 4,100 -1,082 Descending Washington Center
06:25PM 36.0236 -78.6153 239° Southwest 225 259 4,100 -1,065 Level Washington Center
06:26PM 35.9897 -78.6592 226° Southwest 197 227 3,000 -1,219 Descending Washington Center
06:26PM 35.9839 -78.6661 224° Southwest 204 235 2,800 -1,100 Descending Washington Center
06:27PM 35.9500 -78.7081 225° Southwest 210 242 1,900 -984 Descending Washington Center
06:27PM 35.9383 -78.7239 228° Southwest 204 235 1,800 -590 Descending Washington Center
06:28PM 35.9194 -78.7456 223° Southwest 132 152 1,300 -762 Descending Washington Center
06:28PM 35.9131 -78.7564 234° Southwest 145 167 1,000 -787 Descending Washington Center
06:29PM 35.8958 -78.7761 223° Southwest 107 123 500 -387 Descending Washington Center
06:29PM 35.8931 -78.7794 224° Southwest 129 148 600 273 Climbing Washington Center